SBOSBO VLC / LEVC
Speedbird OnlineSpeedbird Online VLC / LEVC

Valencia Airport
00:12 8.2°C

Location Valencia, Spain
Latitude: 39.4893
Longitude: -0.481625
Web Airport Website | Wikipedia
Altitude 73 Meter / 240 Feet
Distance 1,337 KM / 831 Miles
from London.
Time Zone UTC +1 hours (Europe/Madrid)
Codes IATA: VLC
ICAO: LEVC
Currency £1 equals EUR 1.13
Runways
RunwayLength (m)Surface
041644Asphalt
122700Asphalt
221644Asphalt
302700Asphalt
Radio
TypeDescriptionFrequency
APPAPP120.1
ATISATIS121.075
GNDGND121.7
TWRTWR118.55
Live ATC
METAR LEVC 081430Z 03011KT 360V060 9999 FEW020 BKN040 10/07 Q1025 NOSIG
TAF TAF LEVC 081100Z 0812/0912 03012KT 9999 SCT015 TX11/0812Z TN05/0906Z PROB40 TEMPO 0812/0816 3000 RA SHRA BKN010 FEW020TCU TEMPO 0812/0815 03015G25KT BECMG 0820/0822 34005KT
Weather As Of 09 Feb 2023 00:12
Description Broken clouds
Wind 8 km/h from North (341°)
Cloud Cover 75%
Precipitation Rain: none, Snow: none
Sunrise 08:01
Sunset 18:30
Lounges Sala VIP Joan Olivert , -
Rotations During the last 90 days there were
64 flights from LHR
66 flights to LHR



Support Speedbird Online

© 2017-2023 Speedbird Online